Time;durP1;ratioP1;P1;durP2;ratioP2;P2;SDS_P1;SDS_P2;PMS_P1;PMS_P2;Temp;Humidity;BMP_temperature;BMP_pressure;BME280_temperature;BME280_humidity;BME280_pressure;Samples;Min_cycle;Max_cycle;Signal;HPM_P1;HPM_P2
2022/11/04 00:01:52;;;;;;;0.10;0.10;;;12.40;99.90;;;;;;5063743;28;20196;-78
2022/11/04 00:04:20;;;;;;;0.10;0.10;;;12.30;99.90;;;;;;5063336;28;20210;-78
2022/11/04 00:06:46;;;;;;;0.10;0.10;;;12.30;99.90;;;;;;5063732;28;20201;-79
2022/11/04 00:09:16;;;;;;;0.10;0.10;;;12.20;99.90;;;;;;5060808;28;20184;-79
2022/11/04 00:12:42;;;;;;;0.10;0.10;;;12.20;99.90;;;;;;5064289;28;20259;-79
2022/11/04 00:14:36;;;;;;;0.10;0.10;;;12.20;99.90;;;;;;5055889;28;20940;-79
2022/11/04 00:17:19;;;;;;;0.10;0.10;;;12.10;99.90;;;;;;5062392;28;20210;-79
2022/11/04 00:33:46;;;;;;;0.10;0.10;;;12.00;99.90;;;;;;5065208;28;20275;-81
2022/11/04 00:36:11;;;;;;;0.10;0.10;;;11.90;99.90;;;;;;5065346;28;20185;-81
2022/11/04 00:38:37;;;;;;;1.13;1.13;;;11.80;99.90;;;;;;5065256;28;20193;-79
2022/11/04 00:41:24;;;;;;;0.10;0.10;;;11.80;99.90;;;;;;5064997;28;20199;-81
2022/11/04 00:43:48;;;;;;;0.10;0.10;;;11.70;99.90;;;;;;5065419;28;20208;-80
2022/11/04 00:46:13;;;;;;;0.10;0.10;;;11.70;99.90;;;;;;5065564;28;20592;-81
2022/11/04 00:48:39;;;;;;;0.10;0.10;;;11.60;99.90;;;;;;5074039;28;20663;-81
2022/11/04 00:51:04;;;;;;;0.10;0.10;;;11.50;99.90;;;;;;5064918;28;20211;-81
2022/11/04 00:53:30;;;;;;;0.10;0.10;;;11.50;99.90;;;;;;5064198;28;20221;-80
2022/11/04 00:55:58;;;;;;;0.10;0.10;;;11.50;99.90;;;;;;5062002;28;20181;-80
2022/11/04 00:58:24;;;;;;;0.10;0.10;;;11.40;99.90;;;;;;5062458;28;20205;-81
2022/11/04 01:00:49;;;;;;;0.10;0.10;;;11.40;99.90;;;;;;5063421;28;20738;-80
2022/11/04 01:03:15;;;;;;;0.10;0.10;;;11.40;99.90;;;;;;5064579;28;20283;-81
2022/11/04 01:05:40;;;;;;;0.10;0.10;;;11.40;99.90;;;;;;5061912;28;20191;-81
2022/11/04 01:08:06;;;;;;;0.10;0.10;;;11.30;99.90;;;;;;5063371;28;20187;-81
2022/11/04 01:10:34;;;;;;;0.10;0.10;;;11.30;99.90;;;;;;5063204;28;20181;-81
2022/11/04 01:13:00;;;;;;;0.10;0.10;;;11.20;99.90;;;;;;5060109;28;20213;-81
2022/11/04 01:15:26;;;;;;;0.10;0.10;;;11.20;99.90;;;;;;5062540;28;20220;-81
2022/11/04 01:17:51;;;;;;;0.10;0.10;;;11.20;99.90;;;;;;5062082;28;20191;-80
2022/11/04 01:20:17;;;;;;;0.10;0.10;;;11.10;99.90;;;;;;5063820;28;20224;-81
2022/11/04 01:22:43;;;;;;;0.10;0.10;;;11.10;99.90;;;;;;5062064;28;20181;-81
2022/11/04 01:25:09;;;;;;;0.10;0.10;;;11.10;99.90;;;;;;5064786;28;20208;-80
2022/11/04 01:27:34;;;;;;;0.10;0.10;;;11.00;99.90;;;;;;5061283;28;20303;-81
2022/11/04 01:30:00;;;;;;;0.10;0.10;;;11.00;99.90;;;;;;5062805;28;20280;-80
2022/11/04 01:32:27;;;;;;;0.10;0.10;;;11.00;99.90;;;;;;5060887;28;20254;-80
2022/11/04 01:34:52;;;;;;;0.00;0.00;;;10.90;99.90;;;;;;5062913;28;20203;-81
2022/11/04 01:37:18;;;;;;;0.10;0.10;;;10.90;99.90;;;;;;5062757;28;20180;-81
2022/11/04 01:39:43;;;;;;;0.10;0.10;;;10.90;99.90;;;;;;5061470;28;20250;-81
2022/11/04 01:42:13;;;;;;;0.10;0.10;;;10.80;99.90;;;;;;5062207;28;20319;-80
2022/11/04 01:44:52;;;;;;;0.10;0.10;;;10.80;99.90;;;;;;5059907;28;20204;-81
2022/11/04 01:47:23;;;;;;;0.00;0.00;;;10.80;99.90;;;;;;5078173;28;21137;-81
2022/11/04 01:49:58;;;;;;;0.10;0.10;;;10.70;99.90;;;;;;5061400;28;20582;-82
2022/11/04 01:52:30;;;;;;;0.10;0.10;;;10.70;99.90;;;;;;5061588;28;20196;-81
2022/11/04 01:55:00;;;;;;;0.10;0.10;;;10.70;99.90;;;;;;5061759;28;20215;-80
2022/11/04 01:57:33;;;;;;;0.00;0.00;;;10.70;99.90;;;;;;5060649;28;20229;-80
2022/11/04 02:00:01;;;;;;;0.10;0.10;;;10.70;99.90;;;;;;5062845;28;20186;-80
2022/11/04 02:02:27;;;;;;;0.00;0.00;;;10.70;99.90;;;;;;5062133;28;20189;-80
2022/11/04 02:04:53;;;;;;;0.10;0.10;;;10.70;99.90;;;;;;5060369;28;20218;-80
2022/11/04 02:07:18;;;;;;;0.07;0.07;;;10.80;99.90;;;;;;5063289;28;20654;-80
2022/11/04 02:09:44;;;;;;;0.10;0.10;;;10.80;99.90;;;;;;5060866;28;20195;-80
2022/11/04 02:14:54;;;;;;;0.00;0.00;;;10.70;99.90;;;;;;5062532;28;20211;-80
2022/11/04 02:17:39;;;;;;;0.10;0.10;;;10.60;99.90;;;;;;5061977;28;20264;-80
2022/11/04 02:20:47;;;;;;;0.10;0.10;;;10.60;99.90;;;;;;5068307;28;20178;-80
2022/11/04 02:23:43;;;;;;;0.10;0.10;;;10.40;99.90;;;;;;5030394;28;20184;-80
2022/11/04 02:26:27;;;;;;;0.10;0.10;;;10.30;99.90;;;;;;5069013;28;20185;-80
2022/11/04 02:29:12;;;;;;;0.00;0.00;;;10.30;99.90;;;;;;5072144;28;20188;-80
2022/11/04 02:31:47;;;;;;;0.10;0.10;;;10.30;99.90;;;;;;5070944;28;20445;-80
2022/11/04 02:34:31;;;;;;;0.10;0.10;;;10.40;99.90;;;;;;5068687;28;20204;-80
2022/11/04 02:37:01;;;;;;;0.10;0.10;;;10.30;99.90;;;;;;5072164;28;20181;-80
2022/11/04 02:40:00;;;;;;;0.10;0.10;;;10.30;99.90;;;;;;5061508;28;20255;-80
2022/11/04 02:42:34;;;;;;;0.10;0.10;;;10.40;99.90;;;;;;5076706;28;20197;-80
2022/11/04 02:45:14;;;;;;;0.10;0.10;;;10.50;99.90;;;;;;5068615;28;20200;-80
2022/11/04 02:47:45;;;;;;;0.10;0.10;;;10.50;99.90;;;;;;5078156;28;20214;-80
2022/11/04 02:50:19;;;;;;;0.10;0.10;;;10.50;99.90;;;;;;5071439;28;21093;-80
2022/11/04 02:52:54;;;;;;;0.00;0.00;;;10.40;99.90;;;;;;5061185;28;20353;-80
2022/11/04 02:55:28;;;;;;;0.10;0.10;;;10.50;99.90;;;;;;5059441;28;20216;-80
2022/11/04 02:57:58;;;;;;;0.10;0.10;;;10.50;99.90;;;;;;5058996;28;20205;-80
2022/11/04 03:00:24;;;;;;;0.07;0.07;;;10.40;99.90;;;;;;5064267;28;20176;-80
2022/11/04 03:02:52;;;;;;;0.10;0.10;;;10.50;99.90;;;;;;5064082;28;20185;-79
2022/11/04 03:05:27;;;;;;;0.10;0.10;;;10.50;99.90;;;;;;5059151;28;20208;-80
2022/11/04 03:07:56;;;;;;;0.10;0.10;;;10.50;99.90;;;;;;5060189;28;20190;-80
2022/11/04 03:10:34;;;;;;;0.10;0.10;;;10.50;99.90;;;;;;5059674;28;20194;-80
2022/11/04 03:13:15;;;;;;;0.10;0.10;;;10.40;99.90;;;;;;5059235;28;21222;-80
2022/11/04 03:16:00;;;;;;;0.10;0.10;;;10.40;99.90;;;;;;5058623;28;20173;-80
2022/11/04 03:18:35;;;;;;;0.10;0.10;;;10.30;99.90;;;;;;5061303;28;20187;-80
2022/11/04 03:21:08;;;;;;;0.10;0.10;;;10.30;99.90;;;;;;5059103;28;20183;-81
2022/11/04 03:23:34;;;;;;;0.10;0.10;;;10.20;99.90;;;;;;5060869;28;20204;-80
2022/11/04 03:26:24;;;;;;;0.10;0.10;;;10.10;99.90;;;;;;5059438;28;21181;-80
2022/11/04 03:29:11;;;;;;;0.10;0.10;;;10.10;99.90;;;;;;5070790;28;20185;-80
2022/11/04 03:31:48;;;;;;;0.03;0.03;;;10.00;99.90;;;;;;5060441;28;20204;-80
2022/11/04 03:34:14;;;;;;;0.00;0.00;;;9.90;99.90;;;;;;5060115;28;20203;-80
2022/11/04 03:36:40;;;;;;;0.10;0.10;;;9.90;99.90;;;;;;5060349;28;20190;-80
2022/11/04 03:39:05;;;;;;;17.07;11.97;;;9.80;99.90;;;;;;5062401;28;20272;-80
2022/11/04 03:41:50;;;;;;;0.00;0.00;;;9.80;99.90;;;;;;5075403;28;20218;-81
2022/11/04 03:44:15;;;;;;;0.10;0.10;;;9.70;99.90;;;;;;5062125;28;20305;-80
2022/11/04 03:46:41;;;;;;;0.10;0.10;;;9.60;99.90;;;;;;5058963;28;20276;-80
2022/11/04 03:49:08;;;;;;;0.00;0.00;;;9.60;99.90;;;;;;5062974;28;20278;-80
2022/11/04 03:51:34;;;;;;;0.10;0.10;;;9.50;99.90;;;;;;5058566;28;20204;-80
2022/11/04 03:53:59;;;;;;;0.00;0.00;;;9.60;99.90;;;;;;5059785;28;20216;-79
2022/11/04 03:56:47;;;;;;;0.10;0.10;;;9.70;99.90;;;;;;5058275;28;20262;-80
2022/11/04 03:59:32;;;;;;;0.10;0.10;;;9.70;99.90;;;;;;5069690;28;20180;-80
2022/11/04 04:02:30;;;;;;;0.10;0.10;;;9.70;99.90;;;;;;5069184;28;20203;-80
2022/11/04 04:04:58;;;;;;;0.10;0.10;;;9.70;99.90;;;;;;5076527;28;20634;-80
2022/11/04 04:07:49;;;;;;;0.10;0.10;;;9.60;99.90;;;;;;5059622;28;20189;-80
2022/11/04 04:10:38;;;;;;;0.10;0.10;;;9.60;99.90;;;;;;5070831;28;20244;-80
2022/11/04 04:13:19;;;;;;;0.10;0.10;;;9.50;99.90;;;;;;5071051;28;20673;-80
2022/11/04 04:16:14;;;;;;;0.10;0.10;;;9.50;99.90;;;;;;5068252;28;20264;-80
2022/11/04 04:18:48;;;;;;;0.10;0.10;;;9.60;99.90;;;;;;5051472;28;20806;-80
2022/11/04 04:21:17;;;;;;;0.10;0.10;;;9.50;99.90;;;;;;5058676;28;20645;-80
2022/11/04 04:29:20;;;;;;;0.10;0.10;;;9.30;99.90;;;;;;5064379;28;20266;-81
2022/11/04 04:31:48;;;;;;;0.10;0.10;;;9.30;99.90;;;;;;5063855;28;20205;-81
2022/11/04 04:34:22;;;;;;;0.10;0.10;;;9.20;99.90;;;;;;5059306;28;20673;-80
2022/11/04 04:36:53;;;;;;;0.10;0.10;;;9.20;99.90;;;;;;5050906;28;20263;-80
2022/11/04 04:45:04;;;;;;;0.10;0.10;;;9.30;99.90;;;;;;5063060;28;20213;-79
2022/11/04 04:47:48;;;;;;;0.10;0.10;;;9.30;99.90;;;;;;5064513;28;20708;-80
2022/11/04 04:50:16;;;;;;;0.10;0.10;;;9.30;99.90;;;;;;5071250;28;20198;-80
2022/11/04 04:52:53;;;;;;;0.10;0.10;;;9.30;99.90;;;;;;5063251;28;20231;-80
2022/11/04 04:55:19;;;;;;;0.00;0.00;;;9.40;99.90;;;;;;5060089;28;20208;-80
2022/11/04 04:57:45;;;;;;;0.10;0.10;;;9.50;99.90;;;;;;5077520;28;20191;-80
2022/11/04 05:00:17;;;;;;;0.10;0.10;;;9.50;99.90;;;;;;5058204;28;20195;-81
2022/11/04 05:02:42;;;;;;;0.10;0.10;;;9.60;99.90;;;;;;5061031;28;20184;-80
2022/11/04 05:05:09;;;;;;;0.10;0.10;;;9.50;99.90;;;;;;5059398;28;20807;-80
2022/11/04 05:07:34;;;;;;;0.00;0.00;;;9.60;99.90;;;;;;5062421;28;20206;-80
2022/11/04 05:10:00;;;;;;;0.10;0.10;;;9.60;99.90;;;;;;5059649;28;20188;-80
2022/11/04 05:13:24;;;;;;;0.10;0.10;;;9.40;99.90;;;;;;5060063;28;20596;-80
2022/11/04 05:15:11;;;;;;;0.10;0.10;;;9.30;99.90;;;;;;5059891;28;20663;-80
2022/11/04 05:17:36;;;;;;;0.10;0.10;;;9.30;99.90;;;;;;5060551;28;20217;-80
2022/11/04 05:20:02;;;;;;;0.10;0.10;;;9.30;99.90;;;;;;5060228;28;20646;-80
2022/11/04 05:22:27;;;;;;;0.07;0.07;;;9.10;99.90;;;;;;5076944;28;20622;-81
2022/11/04 05:24:53;;;;;;;0.10;0.10;;;9.10;99.90;;;;;;5061586;28;20212;-80
2022/11/04 05:27:18;;;;;;;0.10;0.10;;;9.10;99.90;;;;;;5059597;28;20215;-80
2022/11/04 05:29:44;;;;;;;0.00;0.00;;;9.10;99.90;;;;;;5070660;28;20232;-80
2022/11/04 05:32:09;;;;;;;0.10;0.10;;;9.30;99.90;;;;;;5058829;28;20204;-80
2022/11/04 05:34:35;;;;;;;0.10;0.10;;;9.20;99.90;;;;;;5061239;28;20236;-80
2022/11/04 05:37:01;;;;;;;0.10;0.10;;;9.20;99.90;;;;;;5069675;28;20600;-80
2022/11/04 05:39:26;;;;;;;0.03;0.03;;;9.10;99.90;;;;;;5061570;28;20299;-80
2022/11/04 05:41:52;;;;;;;0.10;0.10;;;9.00;99.90;;;;;;5058704;28;20287;-81
2022/11/04 05:44:17;;;;;;;0.10;0.10;;;9.10;99.90;;;;;;5060513;28;20301;-81
2022/11/04 05:46:43;;;;;;;0.07;0.07;;;9.10;99.90;;;;;;5059641;28;20732;-81
2022/11/04 05:49:09;;;;;;;0.10;0.10;;;9.00;99.90;;;;;;5061820;28;20196;-80
2022/11/04 05:51:34;;;;;;;0.10;0.10;;;9.00;99.90;;;;;;5062007;28;20665;-81
2022/11/04 05:54:00;;;;;;;0.10;0.10;;;9.20;99.90;;;;;;5064887;28;20321;-81
2022/11/04 05:56:26;;;;;;;0.10;0.10;;;9.20;99.90;;;;;;5069229;28;20202;-80
2022/11/04 05:58:51;;;;;;;0.10;0.10;;;9.20;99.90;;;;;;5059111;28;20188;-81
2022/11/04 06:01:34;;;;;;;0.10;0.10;;;9.20;99.90;;;;;;5061013;28;20559;-80
2022/11/04 06:04:02;;;;;;;0.10;0.10;;;9.30;99.90;;;;;;5061972;28;20408;-80
2022/11/04 06:06:32;;;;;;;0.10;0.10;;;9.30;99.90;;;;;;5061422;28;20196;-80
2022/11/04 06:08:58;;;;;;;0.10;0.10;;;9.40;99.90;;;;;;5061060;28;20726;-81
2022/11/04 06:11:25;;;;;;;0.10;0.10;;;9.30;99.90;;;;;;5061771;28;20252;-80
2022/11/04 06:13:52;;;;;;;0.00;0.00;;;9.30;99.90;;;;;;5058813;28;20299;-81
2022/11/04 06:16:18;;;;;;;0.10;0.10;;;9.40;99.90;;;;;;5059882;28;20188;-81
2022/11/04 06:18:43;;;;;;;0.10;0.10;;;9.30;99.90;;;;;;5059742;28;20558;-80
2022/11/04 06:21:12;;;;;;;0.10;0.10;;;9.20;99.90;;;;;;5061619;28;20188;-82
2022/11/04 06:23:41;;;;;;;0.10;0.10;;;9.00;99.90;;;;;;5067653;28;20200;-82
2022/11/04 06:26:08;;;;;;;0.03;0.03;;;9.00;99.90;;;;;;5059948;28;20184;-82
2022/11/04 06:28:33;;;;;;;0.10;0.10;;;9.10;99.90;;;;;;5058746;28;20180;-82
2022/11/04 06:31:01;;;;;;;0.10;0.10;;;9.10;99.90;;;;;;5072810;28;20675;-82
2022/11/04 06:33:28;;;;;;;0.00;0.00;;;9.20;99.90;;;;;;5059973;28;20303;-82
2022/11/04 06:36:01;;;;;;;0.10;0.10;;;9.30;99.90;;;;;;5057304;28;20244;-81
2022/11/04 06:38:29;;;;;;;0.07;0.07;;;9.30;99.90;;;;;;5052756;28;20195;-81
2022/11/04 06:40:55;;;;;;;0.10;0.10;;;9.30;99.90;;;;;;5057652;28;20188;-81
2022/11/04 06:43:21;;;;;;;0.10;0.10;;;9.40;99.90;;;;;;5060841;28;20184;-81
2022/11/04 06:45:57;;;;;;;0.10;0.10;;;9.40;99.90;;;;;;5062526;28;20188;-81
2022/11/04 06:48:23;;;;;;;0.10;0.10;;;9.40;99.90;;;;;;5061291;28;20198;-81
2022/11/04 06:50:49;;;;;;;0.00;0.00;;;9.40;99.90;;;;;;5062444;28;20185;-82
2022/11/04 06:53:14;;;;;;;0.10;0.10;;;9.40;99.90;;;;;;5062237;28;20243;-81
2022/11/04 06:55:40;;;;;;;0.10;0.10;;;9.40;99.90;;;;;;5062070;28;20220;-82
2022/11/04 06:58:06;;;;;;;0.00;0.00;;;9.30;99.90;;;;;;5060043;28;20282;-82
2022/11/04 07:00:31;;;;;;;0.10;0.10;;;9.10;99.90;;;;;;5060186;28;20808;-81
2022/11/04 07:02:57;;;;;;;0.10;0.10;;;9.00;99.90;;;;;;5062770;28;20238;-81
2022/11/04 07:05:23;;;;;;;0.10;0.10;;;8.90;99.90;;;;;;5062200;28;20222;-80
2022/11/04 07:07:48;;;;;;;0.10;0.10;;;8.90;99.90;;;;;;5061135;28;20195;-81
2022/11/04 07:10:16;;;;;;;0.10;0.10;;;8.90;99.90;;;;;;5063430;28;20207;-81
2022/11/04 07:12:41;;;;;;;0.10;0.10;;;8.80;99.90;;;;;;5061780;28;20261;-81
2022/11/04 07:15:07;;;;;;;0.10;0.10;;;8.90;99.90;;;;;;5061718;28;20197;-82
2022/11/04 07:17:34;;;;;;;0.10;0.10;;;8.90;99.90;;;;;;5062619;28;20183;-81
2022/11/04 07:20:00;;;;;;;0.10;0.10;;;9.10;99.90;;;;;;5061925;28;20212;-81
2022/11/04 07:22:25;;;;;;;0.10;0.10;;;9.40;99.90;;;;;;5059691;28;20217;-81
2022/11/04 07:24:51;;;;;;;0.10;0.10;;;9.20;99.90;;;;;;5058742;28;20241;-81
2022/11/04 07:27:16;;;;;;;0.10;0.10;;;9.20;99.90;;;;;;5060668;28;20234;-81
2022/11/04 07:29:42;;;;;;;0.10;0.10;;;9.20;99.90;;;;;;5060720;28;20188;-81
2022/11/04 07:32:08;;;;;;;0.10;0.10;;;9.10;99.90;;;;;;5070494;28;20322;-81
2022/11/04 07:34:33;;;;;;;0.10;0.10;;;9.10;99.90;;;;;;5059784;28;20216;-80
2022/11/04 07:36:59;;;;;;;0.10;0.10;;;9.10;99.90;;;;;;5055529;28;20183;-81
2022/11/04 07:39:24;;;;;;;0.10;0.10;;;9.30;99.90;;;;;;5056076;28;20222;-81
2022/11/04 07:41:50;;;;;;;0.10;0.10;;;9.20;99.90;;;;;;5057419;28;20274;-81
2022/11/04 07:44:15;;;;;;;0.10;0.10;;;9.30;99.90;;;;;;5057252;28;20248;-82
2022/11/04 07:46:41;;;;;;;0.10;0.10;;;9.40;99.90;;;;;;5058174;28;20189;-81
2022/11/04 07:49:07;;;;;;;0.10;0.10;;;9.60;99.90;;;;;;5059709;28;20193;-82
2022/11/04 07:51:32;;;;;;;0.10;0.10;;;9.60;99.90;;;;;;5060777;28;20204;-82
2022/11/04 07:53:58;;;;;;;0.10;0.10;;;9.80;99.90;;;;;;5057710;28;20776;-82
2022/11/04 07:56:24;;;;;;;0.10;0.10;;;9.80;99.90;;;;;;5058172;28;20215;-81
2022/11/04 07:58:51;;;;;;;0.10;0.10;;;9.70;99.90;;;;;;5061281;28;20541;-80
2022/11/04 08:01:22;;;;;;;0.00;0.00;;;9.70;99.90;;;;;;5062973;28;20181;-83
2022/11/04 08:03:48;;;;;;;0.10;0.10;;;9.80;99.90;;;;;;5073131;28;20575;-84
2022/11/04 08:06:15;;;;;;;0.00;0.00;;;9.90;99.90;;;;;;5064444;28;20529;-84
2022/11/04 08:08:42;;;;;;;0.10;0.10;;;10.00;99.90;;;;;;5065066;28;20193;-83
2022/11/04 08:11:14;;;;;;;0.10;0.10;;;9.90;99.90;;;;;;5063806;28;20758;-84
2022/11/04 08:13:40;;;;;;;0.10;0.10;;;9.80;99.90;;;;;;5073922;28;20540;-81
2022/11/04 08:16:08;;;;;;;0.10;0.10;;;9.70;99.90;;;;;;5062153;28;20232;-82
2022/11/04 08:18:35;;;;;;;0.10;0.10;;;9.70;99.90;;;;;;5061256;28;20227;-81
2022/11/04 08:21:02;;;;;;;0.10;0.10;;;9.80;99.90;;;;;;5064583;28;20184;-81
2022/11/04 08:23:28;;;;;;;0.10;0.10;;;9.70;99.90;;;;;;5057432;28;20215;-81
2022/11/04 08:25:54;;;;;;;0.10;0.10;;;9.60;99.90;;;;;;5054203;28;20192;-81
2022/11/04 08:28:20;;;;;;;0.10;0.10;;;9.60;99.90;;;;;;5057779;28;20215;-81
2022/11/04 08:31:01;;;;;;;0.10;0.10;;;9.80;99.90;;;;;;5068326;28;20183;-82
2022/11/04 08:33:29;;;;;;;0.10;0.10;;;10.10;99.90;;;;;;5054274;28;20880;-81
2022/11/04 08:35:59;;;;;;;0.10;0.10;;;10.30;99.90;;;;;;5044370;28;20184;-81
2022/11/04 08:38:25;;;;;;;0.10;0.10;;;10.20;99.90;;;;;;5051181;28;20181;-81
2022/11/04 08:40:51;;;;;;;0.10;0.10;;;10.20;99.90;;;;;;5042003;28;20173;-81
2022/11/04 08:43:17;;;;;;;0.10;0.10;;;10.30;99.90;;;;;;5053449;28;20194;-80
2022/11/04 08:45:44;;;;;;;0.10;0.10;;;10.40;99.90;;;;;;5059870;28;20662;-81
2022/11/04 08:48:10;;;;;;;0.10;0.10;;;10.40;99.90;;;;;;5064073;28;20230;-81
2022/11/04 08:50:36;;;;;;;0.10;0.10;;;10.40;99.90;;;;;;5060182;28;20262;-81
2022/11/04 08:53:03;;;;;;;0.10;0.10;;;10.70;99.90;;;;;;5060746;28;20229;-80
2022/11/04 08:55:30;;;;;;;0.10;0.10;;;10.70;99.90;;;;;;5059509;28;20900;-81
2022/11/04 08:57:55;;;;;;;0.10;0.10;;;11.00;99.90;;;;;;5061598;28;20530;-81
2022/11/04 09:00:21;;;;;;;0.10;0.10;;;11.10;99.90;;;;;;5061119;28;20196;-81
2022/11/04 09:02:46;;;;;;;0.10;0.10;;;11.00;99.90;;;;;;5061961;28;20189;-82
2022/11/04 09:05:13;;;;;;;0.10;0.10;;;11.10;99.90;;;;;;5060974;28;20707;-81
2022/11/04 09:07:39;;;;;;;0.10;0.10;;;11.10;99.90;;;;;;5061789;28;20191;-81
2022/11/04 09:10:06;;;;;;;0.10;0.10;;;11.00;99.90;;;;;;5059113;28;20193;-81
2022/11/04 09:12:32;;;;;;;0.10;0.10;;;11.10;99.90;;;;;;5059477;28;20205;-81
2022/11/04 09:14:57;;;;;;;0.10;0.10;;;10.90;99.90;;;;;;5060087;28;20258;-81
2022/11/04 09:17:23;;;;;;;0.10;0.10;;;10.90;99.90;;;;;;5059978;28;20185;-81
2022/11/04 09:19:49;;;;;;;0.00;0.00;;;11.10;99.90;;;;;;5060992;28;20203;-82
2022/11/04 09:22:15;;;;;;;0.10;0.10;;;11.30;99.90;;;;;;5062416;28;20173;-81
2022/11/04 09:24:41;;;;;;;0.10;0.10;;;11.50;99.90;;;;;;5058786;28;20296;-82
2022/11/04 09:27:06;;;;;;;0.10;0.10;;;11.80;99.90;;;;;;5060677;28;20187;-81
2022/11/04 09:29:32;;;;;;;0.10;0.10;;;11.50;99.90;;;;;;5059781;28;20193;-81
2022/11/04 09:31:59;;;;;;;0.10;0.10;;;11.50;99.90;;;;;;5060743;28;20208;-82
2022/11/04 09:34:24;;;;;;;0.03;0.03;;;11.80;99.90;;;;;;5060435;28;20212;-81
2022/11/04 09:36:53;;;;;;;0.10;0.10;;;11.80;99.90;;;;;;5056796;28;20169;-81
2022/11/04 09:39:19;;;;;;;0.10;0.10;;;11.60;99.90;;;;;;5074177;28;20580;-81
2022/11/04 09:42:05;;;;;;;0.10;0.10;;;11.30;99.90;;;;;;5060220;28;20261;-81
2022/11/04 09:44:42;;;;;;;0.00;0.00;;;11.40;99.90;;;;;;5068121;28;20232;-80
2022/11/04 09:47:10;;;;;;;0.10;0.10;;;11.40;99.90;;;;;;5061163;28;20179;-81
2022/11/04 09:49:41;;;;;;;0.10;0.10;;;11.30;99.90;;;;;;5059686;28;20209;-81
2022/11/04 09:52:14;;;;;;;0.10;0.10;;;11.50;99.90;;;;;;5060722;28;20544;-81
2022/11/04 09:55:19;;;;;;;0.10;0.10;;;11.90;99.90;;;;;;5057611;28;20216;-80
2022/11/04 09:57:52;;;;;;;0.00;0.00;;;12.20;99.90;;;;;;5030692;28;20316;-81
2022/11/04 10:00:19;;;;;;;0.10;0.10;;;11.80;99.90;;;;;;5068975;28;20179;-81
2022/11/04 10:03:03;;;;;;;0.10;0.10;;;11.50;99.90;;;;;;5059787;28;20180;-81
2022/11/04 10:05:58;;;;;;;0.10;0.10;;;11.60;99.90;;;;;;5059611;28;20262;-81
2022/11/04 10:08:47;;;;;;;0.10;0.10;;;11.70;99.90;;;;;;5067216;28;20180;-81
2022/11/04 10:11:15;;;;;;;0.10;0.10;;;11.70;99.90;;;;;;5060063;28;20184;-81
2022/11/04 10:14:14;;;;;;;0.07;0.07;;;11.60;99.90;;;;;;5061531;28;20258;-81
2022/11/04 10:17:01;;;;;;;0.10;0.10;;;11.90;99.90;;;;;;5062244;28;21212;-81
2022/11/04 10:19:36;;;;;;;0.10;0.10;;;12.40;99.90;;;;;;5057522;28;20686;-82
2022/11/04 10:22:09;;;;;;;0.10;0.10;;;12.50;99.90;;;;;;5056009;28;20180;-81
2022/11/04 10:24:41;;;;;;;0.10;0.10;;;12.70;99.90;;;;;;5050224;28;20310;-81
2022/11/04 10:27:21;;;;;;;0.10;0.10;;;12.50;99.90;;;;;;5074658;28;20181;-81
2022/11/04 10:30:09;;;;;;;0.10;0.10;;;12.80;99.90;;;;;;5059897;28;20757;-81
2022/11/04 10:32:51;;;;;;;0.10;0.10;;;12.40;99.90;;;;;;5065675;28;20257;-81
2022/11/04 10:35:44;;;;;;;0.10;0.10;;;12.20;99.90;;;;;;5060504;28;20224;-81
2022/11/04 10:38:23;;;;;;;0.10;0.10;;;12.20;99.90;;;;;;5060622;28;20204;-81
2022/11/04 10:40:52;;;;;;;0.10;0.10;;;12.00;99.90;;;;;;5056760;28;20177;-80
2022/11/04 10:43:32;;;;;;;0.10;0.10;;;12.20;99.90;;;;;;5057325;28;20189;-80
2022/11/04 10:46:04;;;;;;;0.10;0.10;;;12.50;99.90;;;;;;5056873;28;20783;-80
2022/11/04 10:48:44;;;;;;;0.10;0.10;;;12.80;99.90;;;;;;5067848;28;20209;-78
2022/11/04 10:51:10;;;;;;;0.10;0.10;;;12.60;99.90;;;;;;5057874;28;20181;-78
2022/11/04 10:53:36;;;;;;;0.10;0.10;;;12.70;99.90;;;;;;5059007;28;20217;-79
2022/11/04 10:56:05;;;;;;;0.10;0.10;;;12.50;99.90;;;;;;5054867;28;20284;-79
2022/11/04 10:58:38;;;;;;;0.10;0.10;;;12.40;99.90;;;;;;5069555;28;20552;-78
2022/11/04 11:01:32;;;;;;;0.10;0.10;;;12.40;99.90;;;;;;5059613;28;20189;-78
2022/11/04 11:03:59;;;;;;;0.10;0.10;;;12.50;99.90;;;;;;5050757;28;20300;-78
2022/11/04 11:06:31;;;;;;;0.10;0.10;;;12.50;99.90;;;;;;5056154;28;20246;-78
2022/11/04 11:09:11;;;;;;;0.10;0.10;;;12.30;99.90;;;;;;5057600;28;20188;-78
2022/11/04 11:11:46;;;;;;;0.10;0.10;;;12.30;99.90;;;;;;5068683;28;20200;-78
2022/11/04 11:14:30;;;;;;;0.10;0.10;;;12.20;99.90;;;;;;5068817;28;20644;-79
2022/11/04 11:17:16;;;;;;;0.10;0.10;;;12.30;99.90;;;;;;5059631;28;20816;-78
2022/11/04 11:19:49;;;;;;;0.10;0.10;;;12.50;99.90;;;;;;5059454;28;20257;-79
2022/11/04 11:22:45;;;;;;;0.10;0.10;;;12.70;99.90;;;;;;5068793;28;20192;-78
2022/11/04 11:25:34;;;;;;;0.10;0.10;;;12.80;99.90;;;;;;5037056;28;20263;-79
2022/11/04 11:28:04;;;;;;;0.10;0.10;;;12.90;99.90;;;;;;5060138;28;20191;-78
2022/11/04 11:30:31;;;;;;;0.10;0.10;;;13.20;99.90;;;;;;5060015;28;20228;-79
2022/11/04 11:33:02;;;;;;;0.10;0.10;;;13.50;99.90;;;;;;5057709;28;20241;-78
2022/11/04 11:35:40;;;;;;;0.10;0.10;;;13.60;99.90;;;;;;5070280;28;20217;-79
2022/11/04 11:38:28;;;;;;;0.10;0.10;;;13.20;99.90;;;;;;5065604;28;20241;-78
2022/11/04 11:41:10;;;;;;;0.10;0.10;;;13.40;99.90;;;;;;5075199;28;20234;-79
2022/11/04 11:43:41;;;;;;;0.10;0.10;;;13.30;99.90;;;;;;5064634;28;20212;-79
2022/11/04 11:46:07;;;;;;;0.10;0.10;;;13.20;99.90;;;;;;5064211;28;20214;-78
2022/11/04 11:48:49;;;;;;;0.10;0.10;;;12.90;99.90;;;;;;5061110;28;20270;-79
2022/11/04 11:51:23;;;;;;;0.10;0.10;;;12.70;99.90;;;;;;5063214;28;20209;-79
2022/11/04 11:54:37;;;;;;;0.10;0.10;;;12.80;99.90;;;;;;5062410;28;20213;-78
2022/11/04 11:57:34;;;;;;;0.03;0.03;;;13.00;99.90;;;;;;4957266;28;20190;-78
2022/11/04 12:00:09;;;;;;;0.10;0.10;;;13.10;99.90;;;;;;5066213;28;20209;-79
2022/11/04 12:02:40;;;;;;;0.10;0.10;;;13.00;99.90;;;;;;5061881;28;20188;-79
2022/11/04 12:05:11;;;;;;;0.10;0.10;;;13.00;99.90;;;;;;5077973;28;20214;-79
2022/11/04 12:07:49;;;;;;;0.10;0.10;;;13.30;99.90;;;;;;5064052;28;20198;-79
2022/11/04 12:10:21;;;;;;;0.10;0.10;;;13.50;99.90;;;;;;5073263;28;20186;-79
2022/11/04 12:12:52;;;;;;;0.10;0.10;;;13.60;99.90;;;;;;5063857;28;20206;-79
2022/11/04 12:15:40;;;;;;;0.10;0.10;;;13.80;99.90;;;;;;5063801;28;20202;-79
2022/11/04 12:18:14;;;;;;;0.10;0.10;;;13.90;99.90;;;;;;5062494;28;20170;-79
2022/11/04 12:20:57;;;;;;;0.10;0.10;;;14.00;99.90;;;;;;5063140;28;20177;-79
2022/11/04 12:23:46;;;;;;;0.10;0.10;;;14.20;99.90;;;;;;5073137;28;20609;-79
2022/11/04 12:26:27;;;;;;;0.07;0.07;;;14.40;99.90;;;;;;5061932;28;20210;-78
2022/11/04 12:29:05;;;;;;;0.00;0.00;;;14.40;99.90;;;;;;5072446;28;20194;-79
2022/11/04 12:31:50;;;;;;;0.10;0.10;;;14.50;99.90;;;;;;5071954;28;20573;-79
2022/11/04 12:34:48;;;;;;;0.10;0.10;;;14.40;99.90;;;;;;5072740;28;20288;-79
2022/11/04 12:37:39;;;;;;;0.10;0.10;;;14.40;99.90;;;;;;5070626;28;20178;-80
2022/11/04 12:40:28;;;;;;;0.10;0.10;;;14.30;99.90;;;;;;5062300;28;20190;-79
2022/11/04 12:43:02;;;;;;;0.10;0.10;;;14.30;99.90;;;;;;5073152;28;20186;-79
2022/11/04 12:45:46;;;;;;;0.10;0.10;;;14.40;99.90;;;;;;5067037;28;20206;-80
2022/11/04 12:48:36;;;;;;;0.10;0.10;;;14.40;99.90;;;;;;5072032;28;20660;-79
2022/11/04 12:51:04;;;;;;;0.00;0.00;;;14.40;99.90;;;;;;5063638;28;21107;-79
2022/11/04 12:53:54;;;;;;;0.10;0.10;;;14.30;99.90;;;;;;5063333;28;20226;-79
2022/11/04 12:56:43;;;;;;;0.10;0.10;;;14.30;99.90;;;;;;5060968;28;20656;-79
2022/11/04 12:59:57;;;;;;;0.10;0.10;;;14.60;99.90;;;;;;5077295;28;20206;-79
2022/11/04 13:02:27;;;;;;;0.10;0.10;;;14.80;99.90;;;;;;5054058;28;20271;-79
2022/11/04 13:05:01;;;;;;;0.10;0.10;;;14.60;99.90;;;;;;5061379;28;20261;-79
2022/11/04 13:07:37;;;;;;;0.10;0.10;;;14.50;99.90;;;;;;5062180;28;20675;-79
2022/11/04 13:10:31;;;;;;;0.03;0.03;;;14.30;99.90;;;;;;5062274;28;20205;-79
2022/11/04 13:13:00;;;;;;;0.10;0.10;;;14.50;99.90;;;;;;5074966;28;20214;-79
2022/11/04 13:15:31;;;;;;;0.10;0.10;;;14.40;99.90;;;;;;5058971;28;20208;-79
2022/11/04 13:18:04;;;;;;;0.10;0.10;;;14.30;99.90;;;;;;5076204;28;20183;-79
2022/11/04 13:20:44;;;;;;;0.10;0.10;;;14.30;99.90;;;;;;5061688;28;20179;-79
2022/11/04 13:23:23;;;;;;;0.10;0.10;;;14.80;99.90;;;;;;5060805;28;20196;-79
2022/11/04 13:25:50;;;;;;;0.10;0.10;;;14.90;99.90;;;;;;5077158;28;20195;-78
2022/11/04 13:28:18;;;;;;;0.10;0.10;;;14.60;99.90;;;;;;5060652;28;21355;-78
2022/11/04 13:31:06;;;;;;;0.10;0.10;;;14.90;99.90;;;;;;5060722;28;20183;-79
2022/11/04 13:33:58;;;;;;;0.10;0.10;;;15.20;99.90;;;;;;5060474;28;20311;-82
2022/11/04 13:37:01;;;;;;;0.10;0.10;;;15.60;99.90;;;;;;5073375;28;20182;-80
2022/11/04 13:39:33;;;;;;;0.10;0.10;;;15.80;99.90;;;;;;5021816;28;20202;-80
2022/11/04 13:42:24;;;;;;;0.10;0.10;;;15.90;99.90;;;;;;5061298;28;20533;-78
2022/11/04 13:44:55;;;;;;;0.10;0.10;;;15.70;99.90;;;;;;5069806;28;20215;-78
2022/11/04 13:47:24;;;;;;;0.10;0.10;;;15.80;99.90;;;;;;5069425;28;20267;-79